createdAt,value
2022-11-01T00:02:05.765Z,29.27
2022-11-01T00:04:33.875Z,33.70
2022-11-01T00:07:01.977Z,26.77
2022-11-01T00:09:31.327Z,30.77
2022-11-01T00:11:59.819Z,35.58
2022-11-01T00:14:27.970Z,28.23
2022-11-01T00:16:56.012Z,36.97
2022-11-01T00:19:24.085Z,33.15
2022-11-01T00:21:52.196Z,39.80
2022-11-01T00:24:20.870Z,43.38
2022-11-01T00:26:50.830Z,36.83
2022-11-01T00:29:18.806Z,41.35
2022-11-01T00:31:46.803Z,46.97
2022-11-01T00:34:14.867Z,46.80
2022-11-01T00:36:42.821Z,35.20
2022-11-01T00:39:14.130Z,38.15
2022-11-01T00:41:42.123Z,35.35
2022-11-01T00:44:11.527Z,39.75
2022-11-01T00:46:40.781Z,37.35
2022-11-01T00:49:08.702Z,39.67
2022-11-01T00:51:36.731Z,38.88
2022-11-01T00:54:05.071Z,38.92
2022-11-01T00:56:32.970Z,44.20
2022-11-01T00:59:00.965Z,39.47
2022-11-01T01:01:32.282Z,47.70
2022-11-01T01:04:00.420Z,36.70
2022-11-01T01:06:28.457Z,39.30
2022-11-01T01:08:59.999Z,49.72
2022-11-01T01:11:28.097Z,44.15
2022-11-01T01:13:56.080Z,39.55
2022-11-01T01:16:24.068Z,42.58
2022-11-01T01:18:53.457Z,46.83
2022-11-01T01:21:21.575Z,46.50
2022-11-01T01:23:51.466Z,47.05
2022-11-01T01:26:19.472Z,42.65
2022-11-01T01:28:47.646Z,39.38
2022-11-01T01:31:15.820Z,40.63
2022-11-01T01:33:43.806Z,44.33
2022-11-01T01:36:13.209Z,35.58
2022-11-01T01:38:41.243Z,44.83
2022-11-01T01:41:26.518Z,42.13
2022-11-01T01:43:54.728Z,36.67
2022-11-01T01:46:23.020Z,42.57
2022-11-01T01:48:56.419Z,41.10
2022-11-01T01:51:29.738Z,33.58
2022-11-01T01:53:59.464Z,34.75
2022-11-01T01:56:33.073Z,33.97
2022-11-01T01:59:05.743Z,36.67
2022-11-01T02:01:36.594Z,35.65
2022-11-01T02:04:06.686Z,40.00
2022-11-01T02:06:36.873Z,49.88
2022-11-01T02:09:07.176Z,38.92
2022-11-01T02:11:36.355Z,40.97
2022-11-01T02:14:04.980Z,39.55
2022-11-01T02:16:43.946Z,34.83
2022-11-01T02:19:45.098Z,37.78
2022-11-01T02:22:20.195Z,44.40
2022-11-01T02:25:11.020Z,37.25
2022-11-01T02:28:00.814Z,40.78
2022-11-01T02:30:43.173Z,37.30
2022-11-01T02:33:22.655Z,39.42
2022-11-01T02:36:00.131Z,40.78
2022-11-01T02:38:34.911Z,44.47
2022-11-01T02:41:08.483Z,41.78
2022-11-01T02:43:48.578Z,40.72
2022-11-01T02:46:36.107Z,41.50
2022-11-01T02:49:06.706Z,37.70
2022-11-01T02:51:37.337Z,38.80
2022-11-01T02:54:08.025Z,39.80
2022-11-01T02:56:36.778Z,48.95
2022-11-01T02:59:04.872Z,39.47
2022-11-01T03:01:36.189Z,41.47
2022-11-01T03:04:05.861Z,42.95
2022-11-01T03:06:37.628Z,40.42
2022-11-01T03:09:10.845Z,38.63
2022-11-01T03:11:50.091Z,38.58
2022-11-01T03:14:26.001Z,38.92
2022-11-01T03:17:00.205Z,39.28
2022-11-01T03:19:39.786Z,42.67
2022-11-01T03:22:13.345Z,49.78
2022-11-01T03:24:50.007Z,41.10
2022-11-01T03:27:32.708Z,47.95
2022-11-01T03:30:14.100Z,43.25
2022-11-01T03:32:46.677Z,37.63
2022-11-01T03:35:20.465Z,44.85
2022-11-01T03:37:52.122Z,40.95
2022-11-01T03:40:20.551Z,41.05
2022-11-01T03:42:51.599Z,38.90
2022-11-01T03:47:57.729Z,38.38
2022-11-01T03:50:28.621Z,40.57
2022-11-01T03:52:56.973Z,44.45
2022-11-01T03:55:25.897Z,47.28
2022-11-01T03:57:55.982Z,46.00
2022-11-01T04:00:25.975Z,40.65
2022-11-01T04:02:55.589Z,41.78
2022-11-01T04:05:26.780Z,43.35
2022-11-01T04:07:54.999Z,43.63
2022-11-01T04:10:25.116Z,46.27
2022-11-01T04:12:53.856Z,45.13
2022-11-01T04:15:40.679Z,43.70
2022-11-01T04:18:33.132Z,41.45
2022-11-01T04:21:06.867Z,51.40
2022-11-01T04:23:35.331Z,47.53
2022-11-01T04:26:03.646Z,49.97
2022-11-01T04:28:31.546Z,43.67
2022-11-01T04:30:59.499Z,41.55
2022-11-01T04:33:27.473Z,45.25
2022-11-01T04:35:55.432Z,47.75
2022-11-01T04:38:24.787Z,44.40
2022-11-01T04:40:52.790Z,44.78
2022-11-01T04:43:22.832Z,43.28
2022-11-01T04:45:55.748Z,48.17
2022-11-01T04:48:24.230Z,44.08
2022-11-01T04:50:54.589Z,48.00
2022-11-01T04:53:23.956Z,48.30
2022-11-01T04:55:51.914Z,48.13
2022-11-01T04:58:19.859Z,48.42
2022-11-01T05:00:47.899Z,52.13
2022-11-01T05:03:15.981Z,54.33
2022-11-01T05:05:43.962Z,49.90
2022-11-01T05:08:13.436Z,47.03
2022-11-01T05:10:43.878Z,48.42
2022-11-01T05:13:14.397Z,50.47
2022-11-01T05:15:53.533Z,50.17
2022-11-01T05:18:30.463Z,47.22
2022-11-01T05:20:58.728Z,51.70
2022-11-01T05:23:26.671Z,49.10
2022-11-01T05:25:56.026Z,49.35
2022-11-01T05:28:24.000Z,45.25
2022-11-01T05:30:53.443Z,47.13
2022-11-01T05:33:21.432Z,49.92
2022-11-01T05:35:49.327Z,48.97
2022-11-01T05:38:17.320Z,54.17
2022-11-01T05:40:45.239Z,49.03
2022-11-01T05:43:15.934Z,51.63
2022-11-01T05:45:43.859Z,50.95
2022-11-01T05:48:12.099Z,49.33
2022-11-01T05:50:40.107Z,52.03
2022-11-01T05:53:09.058Z,49.25
2022-11-01T05:55:37.826Z,47.22
2022-11-01T05:58:06.541Z,48.78
2022-11-01T06:00:36.368Z,55.72
2022-11-01T06:03:05.009Z,51.97
2022-11-01T06:05:33.815Z,50.83
2022-11-01T06:08:03.070Z,49.65
2022-11-01T06:10:31.751Z,47.80
2022-11-01T06:13:00.754Z,49.65
2022-11-01T06:17:58.843Z,55.22
2022-11-01T06:20:27.083Z,53.05
2022-11-01T06:22:55.029Z,49.20
2022-11-01T06:25:23.811Z,53.72
2022-11-01T06:27:51.725Z,47.55
2022-11-01T06:30:19.707Z,48.53
2022-11-01T06:32:47.701Z,54.53
2022-11-01T06:35:18.346Z,47.22
2022-11-01T06:37:46.852Z,51.72
2022-11-01T06:40:17.820Z,48.72
2022-11-01T06:42:47.045Z,47.33
2022-11-01T06:45:16.142Z,50.05
2022-11-01T06:47:48.134Z,50.28
2022-11-01T06:50:17.075Z,50.50
2022-11-01T06:52:57.285Z,49.92
2022-11-01T06:55:25.510Z,47.53
2022-11-01T06:57:57.487Z,53.07
2022-11-01T07:00:26.804Z,53.65
2022-11-01T07:02:59.976Z,53.03
2022-11-01T07:05:30.386Z,56.42
2022-11-01T07:08:04.751Z,55.67
2022-11-01T07:10:32.931Z,52.95
2022-11-01T07:13:01.290Z,53.78
2022-11-01T07:15:30.195Z,58.15
2022-11-01T07:17:58.918Z,63.40
2022-11-01T07:20:31.129Z,68.68
2022-11-01T07:23:01.613Z,72.57
2022-11-01T07:25:32.789Z,64.10
2022-11-01T07:28:01.529Z,70.07
2022-11-01T07:30:29.838Z,69.72
2022-11-01T07:33:14.745Z,65.80
2022-11-01T07:35:42.755Z,77.82
2022-11-01T07:38:16.992Z,67.20
2022-11-01T07:40:55.066Z,70.28
2022-11-01T07:43:26.309Z,66.63
2022-11-01T07:46:07.098Z,67.85
2022-11-01T07:48:38.094Z,74.15
2022-11-01T07:51:07.568Z,68.05
2022-11-01T07:53:35.569Z,75.35
2022-11-01T07:56:05.391Z,81.63
2022-11-01T07:58:34.867Z,86.07
2022-11-01T08:01:03.058Z,81.00
2022-11-01T08:03:31.708Z,81.87
2022-11-01T08:05:59.710Z,83.63
2022-11-01T08:08:27.710Z,78.32
2022-11-01T08:10:55.646Z,76.95
2022-11-01T08:13:25.956Z,78.25
2022-11-01T08:15:55.129Z,77.32
2022-11-01T08:18:24.398Z,81.57
2022-11-01T08:20:52.871Z,78.15
2022-11-01T08:23:21.613Z,84.72
2022-11-01T08:25:49.575Z,73.80
2022-11-01T08:28:19.258Z,79.35
2022-11-01T08:30:50.626Z,81.47
2022-11-01T08:33:18.818Z,76.55
2022-11-01T08:35:50.481Z,76.07
2022-11-01T08:38:19.823Z,78.75
2022-11-01T08:40:48.033Z,84.03
2022-11-01T08:43:16.126Z,83.40
2022-11-01T08:45:44.056Z,81.65
2022-11-01T08:48:14.345Z,77.20
2022-11-01T08:50:42.779Z,82.88
2022-11-01T08:53:12.937Z,76.88
2022-11-01T08:55:41.760Z,70.05
2022-11-01T08:58:10.659Z,61.38
2022-11-01T09:00:39.394Z,61.03
2022-11-01T09:03:07.366Z,60.78
2022-11-01T09:05:36.816Z,65.90
2022-11-01T09:08:05.490Z,58.90
2022-11-01T09:13:02.071Z,63.35
2022-11-01T09:15:30.746Z,54.58
2022-11-01T09:17:58.642Z,55.60
2022-11-01T09:20:28.323Z,56.35
2022-11-01T09:22:57.711Z,57.92
2022-11-01T09:25:25.735Z,54.38
2022-11-01T09:27:56.624Z,53.00
2022-11-01T09:30:24.575Z,51.38
2022-11-01T09:32:52.514Z,52.17
2022-11-01T09:35:20.584Z,50.60
2022-11-01T09:37:48.527Z,46.70
2022-11-01T09:40:18.072Z,45.43
2022-11-01T09:42:47.297Z,48.03
2022-11-01T09:45:20.090Z,50.85
2022-11-01T09:47:52.798Z,49.28
2022-11-01T09:50:24.850Z,50.97
2022-11-01T09:52:55.982Z,52.08
2022-11-01T09:55:35.446Z,49.67
2022-11-01T09:58:16.639Z,51.83
2022-11-01T10:00:55.089Z,50.33
2022-11-01T10:03:39.262Z,53.35
2022-11-01T10:06:16.644Z,51.05
2022-11-01T10:08:56.977Z,48.63
2022-11-01T10:11:44.526Z,49.80
2022-11-01T10:14:23.380Z,48.38
2022-11-01T10:17:04.638Z,50.20
2022-11-01T10:19:35.399Z,50.55
2022-11-01T10:22:12.339Z,51.83
2022-11-01T10:24:46.942Z,52.03
2022-11-01T10:27:21.056Z,54.33
2022-11-01T10:29:55.887Z,53.17
2022-11-01T10:32:32.142Z,50.88
2022-11-01T10:35:04.407Z,53.80
2022-11-01T10:37:43.735Z,52.75
2022-11-01T10:40:25.717Z,51.97
2022-11-01T10:42:55.274Z,55.22
2022-11-01T10:45:23.946Z,53.58
2022-11-01T10:50:25.118Z,54.38
2022-11-01T10:52:57.053Z,56.28
2022-11-01T10:55:31.105Z,51.47
2022-11-01T10:58:06.538Z,53.63
2022-11-01T11:00:38.310Z,56.08
2022-11-01T11:03:24.109Z,54.22
2022-11-01T11:05:53.428Z,54.10
2022-11-01T11:08:24.472Z,52.88
2022-11-01T11:10:53.351Z,52.25
2022-11-01T11:13:25.339Z,50.95
2022-11-01T11:15:56.155Z,56.05
2022-11-01T11:18:26.367Z,54.60
2022-11-01T11:20:57.486Z,51.58
2022-11-01T11:23:29.573Z,57.55
2022-11-01T11:26:03.695Z,52.58
2022-11-01T11:28:35.499Z,53.95
2022-11-01T11:31:15.225Z,52.28
2022-11-01T11:33:51.374Z,52.92
2022-11-01T11:36:27.582Z,52.95
2022-11-01T11:38:56.690Z,52.45
2022-11-01T11:41:30.253Z,53.55
2022-11-01T11:44:00.161Z,52.88
2022-11-01T11:46:28.290Z,53.95
2022-11-01T11:48:59.191Z,54.83
2022-11-01T11:51:29.728Z,51.80
2022-11-01T11:54:20.635Z,53.72
2022-11-01T11:56:52.348Z,54.28
2022-11-01T11:59:27.129Z,51.83
2022-11-01T12:02:00.607Z,50.45
2022-11-01T12:04:32.945Z,51.75
2022-11-01T12:07:00.955Z,54.58
2022-11-01T12:09:45.487Z,51.83
2022-11-01T12:12:18.786Z,53.03
2022-11-01T12:14:48.485Z,51.85
2022-11-01T12:17:33.071Z,52.58
2022-11-01T12:20:03.687Z,52.45
2022-11-01T12:22:35.500Z,53.42
2022-11-01T12:25:08.319Z,51.03
2022-11-01T12:27:36.795Z,49.30
2022-11-01T12:30:10.480Z,48.85
2022-11-01T12:32:48.554Z,50.53
2022-11-01T12:37:56.685Z,47.58
2022-11-01T12:40:29.629Z,48.15
2022-11-01T12:43:01.318Z,44.17
2022-11-01T12:45:46.728Z,43.05
2022-11-01T12:48:22.236Z,39.78
2022-11-01T12:50:56.165Z,40.65
2022-11-01T12:53:28.930Z,41.03
2022-11-01T12:55:59.242Z,41.40
2022-11-01T12:58:33.455Z,41.65
2022-11-01T13:01:26.526Z,39.15
2022-11-01T13:04:08.387Z,42.95
2022-11-01T13:06:56.727Z,41.45
2022-11-01T13:09:35.900Z,43.67
2022-11-01T13:12:12.090Z,46.55
2022-11-01T13:14:49.397Z,47.83
2022-11-01T13:17:24.597Z,44.07
2022-11-01T13:20:06.197Z,48.85
2022-11-01T13:22:41.164Z,45.22
2022-11-01T13:25:18.851Z,49.35
2022-11-01T13:27:54.784Z,46.72
2022-11-01T13:30:23.014Z,43.33
2022-11-01T13:33:00.006Z,44.78
2022-11-01T13:35:50.549Z,50.58
2022-11-01T13:38:28.979Z,47.05
2022-11-01T13:41:04.729Z,48.67
2022-11-01T13:43:38.664Z,45.30
2022-11-01T13:46:39.548Z,47.85
2022-11-01T13:49:36.126Z,44.95
2022-11-01T13:52:09.131Z,47.35
2022-11-01T13:54:43.801Z,49.00
2022-11-01T13:57:16.082Z,50.47
2022-11-01T13:59:54.077Z,50.33
2022-11-01T14:02:56.253Z,50.15
2022-11-01T14:05:38.285Z,48.97
2022-11-01T14:08:37.645Z,48.85
2022-11-01T14:11:05.971Z,47.75
2022-11-01T14:16:28.599Z,56.30
2022-11-01T14:19:21.341Z,54.13
2022-11-01T14:21:54.195Z,50.15
2022-11-01T14:24:26.632Z,50.45
2022-11-01T14:27:20.917Z,48.10
2022-11-01T14:29:53.431Z,46.20
2022-11-01T14:32:24.254Z,61.90
2022-11-01T14:35:08.364Z,49.78
2022-11-01T14:37:42.131Z,51.65
2022-11-01T14:40:30.538Z,51.35
2022-11-01T14:43:05.369Z,53.92
2022-11-01T14:45:36.990Z,53.30
2022-11-01T14:48:13.230Z,57.05
2022-11-01T14:50:47.451Z,66.28
2022-11-01T14:53:24.789Z,64.97
2022-11-01T14:56:07.255Z,63.08
2022-11-01T14:58:35.456Z,63.83
2022-11-01T15:01:09.163Z,63.00
2022-11-01T15:03:37.297Z,60.55
2022-11-01T15:06:17.588Z,60.80
2022-11-01T15:08:46.934Z,60.13
2022-11-01T15:11:15.028Z,58.78
2022-11-01T15:13:45.053Z,55.22
2022-11-01T15:16:17.518Z,59.50
2022-11-01T15:18:51.163Z,63.40
2022-11-01T15:21:25.674Z,57.50
2022-11-01T15:23:59.129Z,59.50
2022-11-01T15:26:31.302Z,60.13
2022-11-01T15:29:01.269Z,58.20
2022-11-01T15:31:30.440Z,64.53
2022-11-01T15:34:00.945Z,63.45
2022-11-01T15:36:32.901Z,60.53
2022-11-01T15:39:04.768Z,64.60
2022-11-01T15:41:34.827Z,65.63
2022-11-01T15:44:05.158Z,61.80
2022-11-01T15:46:35.340Z,62.67
2022-11-01T15:49:09.224Z,60.95
2022-11-01T15:51:42.712Z,63.10
2022-11-01T15:54:26.795Z,66.50
2022-11-01T15:57:03.190Z,62.85
2022-11-01T15:59:35.310Z,67.95
2022-11-01T16:02:08.595Z,63.65
2022-11-01T16:04:41.962Z,65.40
2022-11-01T16:07:14.686Z,59.15
2022-11-01T16:09:47.303Z,68.15
2022-11-01T16:12:19.050Z,65.95
2022-11-01T16:14:54.331Z,66.40
2022-11-01T16:17:25.295Z,65.30
2022-11-01T16:19:53.753Z,67.30
2022-11-01T16:22:31.368Z,65.35
2022-11-01T16:25:21.503Z,72.00
2022-11-01T16:27:59.216Z,73.60
2022-11-01T16:30:39.262Z,66.63
2022-11-01T16:33:18.019Z,69.70
2022-11-01T16:35:48.054Z,69.90
2022-11-01T16:38:41.956Z,72.22
2022-11-01T16:41:20.152Z,66.10
2022-11-01T16:43:49.306Z,75.53
2022-11-01T16:46:18.203Z,72.32
2022-11-01T16:48:59.957Z,74.38
2022-11-01T16:51:31.910Z,81.75
2022-11-01T16:54:04.931Z,78.75
2022-11-01T16:56:41.461Z,75.15
2022-11-01T16:59:16.469Z,77.30
2022-11-01T17:01:50.816Z,75.50
2022-11-01T17:04:19.996Z,78.72
2022-11-01T17:06:50.479Z,80.75
2022-11-01T17:09:20.044Z,76.22
2022-11-01T17:11:51.835Z,75.70
2022-11-01T17:14:20.569Z,85.18
2022-11-01T17:16:50.708Z,98.88
2022-11-01T17:19:23.299Z,84.57
2022-11-01T17:21:52.763Z,79.85
2022-11-01T17:24:24.219Z,96.93
2022-11-01T17:26:55.981Z,95.93
2022-11-01T17:29:23.893Z,102.20
2022-11-01T17:31:51.850Z,88.10
2022-11-01T17:34:19.865Z,101.60
2022-11-01T17:36:51.310Z,103.83
2022-11-01T17:39:19.986Z,106.85
2022-11-01T17:41:48.105Z,102.32
2022-11-01T17:44:17.556Z,102.75
2022-11-01T17:46:45.486Z,105.43
2022-11-01T17:49:15.675Z,99.03
2022-11-01T17:51:44.174Z,96.45
2022-11-01T17:54:12.165Z,94.38
2022-11-01T17:56:40.126Z,94.70
2022-11-01T17:59:08.744Z,93.32
2022-11-01T18:01:39.473Z,97.85
2022-11-01T18:04:10.081Z,102.50
2022-11-01T18:06:40.188Z,98.03
2022-11-01T18:09:19.210Z,101.97
2022-11-01T18:11:53.409Z,98.80
2022-11-01T18:14:29.145Z,106.30
2022-11-01T18:17:09.721Z,101.72
2022-11-01T18:19:49.129Z,104.03
2022-11-01T18:22:26.809Z,107.50
2022-11-01T18:24:59.935Z,104.45
2022-11-01T18:27:35.535Z,116.55
2022-11-01T18:30:09.937Z,117.75
2022-11-01T18:32:44.931Z,129.82
2022-11-01T18:35:26.059Z,155.07
2022-11-01T18:38:12.528Z,217.30
2022-11-01T18:40:49.015Z,234.40
2022-11-01T18:43:18.464Z,252.25
2022-11-01T18:46:11.517Z,222.05
2022-11-01T18:48:35.934Z,220.93
2022-11-01T18:51:06.903Z,206.30
2022-11-01T18:53:36.990Z,180.10
2022-11-01T18:56:19.515Z,176.05
2022-11-01T18:58:47.658Z,159.38
2022-11-01T19:01:19.395Z,163.03
2022-11-01T19:03:58.028Z,136.60
2022-11-01T19:06:27.209Z,145.57
2022-11-01T19:08:56.644Z,143.27
2022-11-01T19:11:26.397Z,165.80
2022-11-01T19:13:55.780Z,158.93
2022-11-01T19:16:23.871Z,149.13
2022-11-01T19:18:53.440Z,154.90
2022-11-01T19:21:25.249Z,127.18
2022-11-01T19:23:55.256Z,146.27
2022-11-01T19:26:26.916Z,154.00
2022-11-01T19:28:57.473Z,141.48
2022-11-01T19:31:33.829Z,151.80
2022-11-01T19:34:06.417Z,141.27
2022-11-01T19:39:24.232Z,136.50
2022-11-01T19:41:54.049Z,120.75
2022-11-01T19:44:24.312Z,119.80
2022-11-01T19:46:55.660Z,116.80
2022-11-01T19:49:27.051Z,107.38
2022-11-01T19:52:13.264Z,108.47
2022-11-01T19:54:43.497Z,112.28
2022-11-01T19:57:21.404Z,111.32
2022-11-01T19:59:49.542Z,96.40
2022-11-01T20:02:22.911Z,98.47
2022-11-01T20:04:56.339Z,103.00
2022-11-01T20:07:26.954Z,110.97
2022-11-01T20:09:58.808Z,108.00
2022-11-01T20:12:27.021Z,108.15
2022-11-01T20:14:54.999Z,104.22
2022-11-01T20:17:24.271Z,83.88
2022-11-01T20:19:54.518Z,88.90
2022-11-01T20:22:23.153Z,124.72
2022-11-01T20:24:51.831Z,177.52
2022-11-01T20:27:19.797Z,212.77
2022-11-01T20:29:47.759Z,131.98
2022-11-01T20:32:16.383Z,184.30
2022-11-01T20:34:44.554Z,235.65
2022-11-01T20:37:28.064Z,187.70
2022-11-01T20:39:56.823Z,175.07
2022-11-01T20:42:25.201Z,197.15
2022-11-01T20:44:53.211Z,195.30
2022-11-01T20:47:21.086Z,230.32
2022-11-01T20:49:49.043Z,353.23
2022-11-01T20:55:09.315Z,247.48
2022-11-01T20:57:37.690Z,166.38
2022-11-01T21:00:07.208Z,141.30
2022-11-01T21:02:35.311Z,140.38
2022-11-01T21:05:08.259Z,138.43
2022-11-01T21:07:37.570Z,122.50
2022-11-01T21:10:26.621Z,115.78
2022-11-01T21:12:54.571Z,117.20
2022-11-01T21:15:33.999Z,109.07
2022-11-01T21:18:44.172Z,101.95
2022-11-01T21:21:32.589Z,110.32
2022-11-01T21:24:36.585Z,109.85
2022-11-01T21:27:27.347Z,113.38
2022-11-01T21:30:04.671Z,113.25
2022-11-01T21:32:37.682Z,113.30
2022-11-01T21:35:38.477Z,117.85
2022-11-01T21:38:29.855Z,108.88
2022-11-01T21:40:59.535Z,102.05
2022-11-01T21:43:33.096Z,100.47
2022-11-01T21:46:01.306Z,115.72
2022-11-01T21:48:30.660Z,104.05
2022-11-01T21:50:58.590Z,97.25
2022-11-01T21:53:26.510Z,84.15
2022-11-01T21:55:54.560Z,85.25
2022-11-01T21:58:23.890Z,78.43
2022-11-01T22:00:53.978Z,81.10
2022-11-01T22:03:22.119Z,79.88
2022-11-01T22:05:50.086Z,83.15
2022-11-01T22:08:22.549Z,96.93
2022-11-01T22:11:01.900Z,99.32
2022-11-01T22:13:43.330Z,88.68
2022-11-01T22:16:14.190Z,101.93
2022-11-01T22:18:48.499Z,98.28
2022-11-01T22:21:27.556Z,85.32
2022-11-01T22:26:28.649Z,99.68
2022-11-01T22:29:13.825Z,99.05
2022-11-01T22:31:42.476Z,96.90
2022-11-01T22:34:12.365Z,100.78
2022-11-01T22:36:44.717Z,94.90
2022-11-01T22:39:20.900Z,99.07
2022-11-01T22:41:53.319Z,89.70
2022-11-01T22:44:35.004Z,93.93
2022-11-01T22:47:06.416Z,106.32
2022-11-01T22:49:41.754Z,116.03
2022-11-01T22:52:20.514Z,92.70
2022-11-01T22:54:51.539Z,92.50
2022-11-01T22:57:22.306Z,91.78
2022-11-01T22:59:54.414Z,93.85
2022-11-01T23:02:27.821Z,90.97
2022-11-01T23:05:02.048Z,89.82
2022-11-01T23:07:35.662Z,91.28
2022-11-01T23:10:07.411Z,100.65
2022-11-01T23:12:56.665Z,92.85
2022-11-01T23:15:29.033Z,97.85
2022-11-01T23:18:03.618Z,98.05
2022-11-01T23:20:31.702Z,96.88
2022-11-01T23:23:01.314Z,92.13
2022-11-01T23:25:30.350Z,90.60
2022-11-01T23:27:58.375Z,85.15
2022-11-01T23:30:28.067Z,91.60
2022-11-01T23:32:58.132Z,91.82
2022-11-01T23:35:26.616Z,83.93
2022-11-01T23:37:58.086Z,97.35
2022-11-01T23:40:32.905Z,95.07
2022-11-01T23:43:01.050Z,97.97
2022-11-01T23:45:34.478Z,100.32
2022-11-01T23:48:02.676Z,90.68
2022-11-01T23:50:33.893Z,95.37
2022-11-01T23:53:05.531Z,87.72
2022-11-01T23:55:38.020Z,89.15
2022-11-01T23:58:08.138Z,89.72
